createdAt,value
2022-10-15T00:01:39.472Z,6.76
2022-10-15T00:04:11.528Z,6.79
2022-10-15T00:06:41.247Z,6.79
2022-10-15T00:09:10.977Z,6.72
2022-10-15T00:11:41.145Z,6.72
2022-10-15T00:14:11.645Z,6.73
2022-10-15T00:16:41.817Z,6.77
2022-10-15T00:19:10.901Z,6.82
2022-10-15T00:21:40.671Z,6.84
2022-10-15T00:24:12.009Z,6.85
2022-10-15T00:26:42.243Z,6.86
2022-10-15T00:29:11.525Z,6.89
2022-10-15T00:31:40.730Z,6.94
2022-10-15T00:34:11.661Z,6.98
2022-10-15T00:36:41.917Z,7.00
2022-10-15T00:39:11.955Z,7.00
2022-10-15T00:41:42.988Z,7.03
2022-10-15T00:44:39.085Z,7.06
2022-10-15T00:47:29.997Z,7.11
2022-10-15T00:50:14.291Z,7.17
2022-10-15T00:52:55.975Z,7.19
2022-10-15T00:55:31.763Z,7.20
2022-10-15T00:58:08.898Z,7.20
2022-10-15T01:00:38.477Z,7.22
2022-10-15T01:03:08.551Z,7.25
2022-10-15T01:05:38.752Z,7.29
2022-10-15T01:08:10.681Z,7.30
2022-10-15T01:11:03.871Z,7.30
2022-10-15T01:13:49.148Z,7.34
2022-10-15T01:16:26.492Z,7.33
2022-10-15T01:19:01.850Z,7.29
2022-10-15T01:21:43.188Z,7.25
2022-10-15T01:24:22.317Z,7.20
2022-10-15T01:27:12.977Z,7.19
2022-10-15T01:30:01.658Z,7.22
2022-10-15T01:32:38.724Z,7.22
2022-10-15T01:35:18.551Z,7.23
2022-10-15T01:38:05.356Z,7.25
2022-10-15T01:41:01.440Z,7.23
2022-10-15T01:43:42.125Z,7.22
2022-10-15T01:46:54.849Z,7.22
2022-10-15T01:49:27.585Z,7.20
2022-10-15T01:51:57.571Z,7.21
2022-10-15T01:54:27.156Z,7.22
2022-10-15T01:56:57.562Z,7.21
2022-10-15T01:59:30.380Z,7.22
2022-10-15T02:01:59.209Z,7.17
2022-10-15T02:04:30.879Z,7.16
2022-10-15T02:07:31.238Z,7.18
2022-10-15T02:10:30.904Z,7.21
2022-10-15T02:13:37.066Z,7.18
2022-10-15T02:16:14.308Z,7.12
2022-10-15T02:19:06.876Z,7.09
2022-10-15T02:21:41.444Z,7.07
2022-10-15T02:24:24.679Z,7.12
2022-10-15T02:26:57.785Z,7.17
2022-10-15T02:29:32.844Z,7.21
2022-10-15T02:32:02.642Z,7.23
2022-10-15T02:34:33.592Z,7.26
2022-10-15T02:37:04.091Z,7.29
2022-10-15T02:39:34.916Z,7.31
2022-10-15T02:42:06.092Z,7.32
2022-10-15T02:44:36.852Z,7.27
2022-10-15T02:47:07.005Z,7.27
2022-10-15T02:49:37.063Z,7.28
2022-10-15T02:52:08.862Z,7.30
2022-10-15T02:54:38.908Z,7.33
2022-10-15T02:57:08.694Z,7.36
2022-10-15T02:59:39.124Z,7.37
2022-10-15T03:02:09.035Z,7.37
2022-10-15T03:04:39.453Z,7.36
2022-10-15T03:07:09.198Z,7.34
2022-10-15T03:09:38.146Z,7.34
2022-10-15T03:12:08.253Z,7.35
2022-10-15T03:14:38.485Z,7.33
2022-10-15T03:17:08.822Z,7.35
2022-10-15T03:19:38.167Z,7.38
2022-10-15T03:22:08.051Z,7.42
2022-10-15T03:24:39.334Z,7.43
2022-10-15T03:27:08.673Z,7.44
2022-10-15T03:29:38.423Z,7.44
2022-10-15T03:32:09.174Z,7.47
2022-10-15T03:34:38.983Z,7.45
2022-10-15T03:37:09.268Z,7.47
2022-10-15T03:39:38.823Z,7.50
2022-10-15T03:42:08.384Z,7.50
2022-10-15T03:44:39.546Z,7.51
2022-10-15T03:47:16.385Z,7.52
2022-10-15T03:49:48.592Z,7.53
2022-10-15T03:52:18.742Z,7.55
2022-10-15T03:54:50.706Z,7.54
2022-10-15T03:57:22.031Z,7.50
2022-10-15T03:59:53.930Z,7.50
2022-10-15T04:02:24.909Z,7.52
2022-10-15T04:04:56.557Z,7.51
2022-10-15T04:07:26.710Z,7.49
2022-10-15T04:09:56.067Z,7.48
2022-10-15T04:12:28.315Z,7.47
2022-10-15T04:14:58.378Z,7.43
2022-10-15T04:17:28.993Z,7.42
2022-10-15T04:19:59.315Z,7.40
2022-10-15T04:22:29.654Z,7.38
2022-10-15T04:25:00.984Z,7.38
2022-10-15T04:27:32.425Z,7.41
2022-10-15T04:30:11.359Z,7.42
2022-10-15T04:32:43.529Z,7.44
2022-10-15T04:35:14.327Z,7.42
2022-10-15T04:37:49.084Z,7.41
2022-10-15T04:40:19.269Z,7.38
2022-10-15T04:42:50.654Z,7.33
2022-10-15T04:45:21.600Z,7.34
2022-10-15T04:47:52.219Z,7.38
2022-10-15T04:50:21.225Z,7.40
2022-10-15T04:53:08.798Z,7.43
2022-10-15T04:55:40.180Z,7.47
2022-10-15T04:58:10.029Z,7.49
2022-10-15T05:00:40.292Z,7.51
2022-10-15T05:03:14.659Z,7.53
2022-10-15T05:05:51.768Z,7.52
2022-10-15T05:08:22.280Z,7.54
2022-10-15T05:11:05.344Z,7.53
2022-10-15T05:13:35.510Z,7.54
2022-10-15T05:16:15.989Z,7.55
2022-10-15T05:18:49.500Z,7.59
2022-10-15T05:21:19.907Z,7.64
2022-10-15T05:23:53.040Z,7.69
2022-10-15T05:26:40.965Z,7.73
2022-10-15T05:29:11.628Z,7.77
2022-10-15T05:31:41.153Z,7.76
2022-10-15T05:34:13.442Z,7.78
2022-10-15T05:36:47.704Z,7.82
2022-10-15T05:39:20.069Z,7.87
2022-10-15T05:41:49.610Z,7.93
2022-10-15T05:44:19.251Z,7.99
2022-10-15T05:46:48.989Z,8.04
2022-10-15T05:49:21.812Z,8.08
2022-10-15T05:54:28.565Z,8.19
2022-10-15T05:56:58.597Z,8.24
2022-10-15T05:59:29.020Z,8.29
2022-10-15T06:02:00.669Z,8.35
2022-10-15T06:04:35.491Z,8.38
2022-10-15T06:07:03.990Z,8.42
2022-10-15T06:09:33.933Z,8.44
2022-10-15T06:12:04.868Z,8.46
2022-10-15T06:14:34.601Z,8.47
2022-10-15T06:17:06.048Z,8.50
2022-10-15T06:19:35.354Z,8.52
2022-10-15T06:22:06.249Z,8.52
2022-10-15T06:24:36.225Z,8.52
2022-10-15T06:27:05.381Z,8.53
2022-10-15T06:29:34.976Z,8.53
2022-10-15T06:32:04.853Z,8.53
2022-10-15T06:34:33.958Z,8.55
2022-10-15T06:37:03.028Z,8.57
2022-10-15T06:39:32.407Z,8.57
2022-10-15T06:42:02.984Z,8.61
2022-10-15T06:44:33.873Z,8.62
2022-10-15T06:47:04.067Z,8.63
2022-10-15T06:49:33.495Z,8.67
2022-10-15T06:52:04.044Z,8.69
2022-10-15T06:54:34.512Z,8.72
2022-10-15T06:57:04.610Z,8.75
2022-10-15T06:59:38.593Z,8.79
2022-10-15T07:02:06.841Z,8.83
2022-10-15T07:04:36.857Z,8.86
2022-10-15T07:07:06.186Z,8.90
2022-10-15T07:09:36.728Z,8.94
2022-10-15T07:12:08.090Z,8.98
2022-10-15T07:14:40.126Z,9.03
2022-10-15T07:17:09.586Z,9.08
2022-10-15T07:19:39.439Z,9.12
2022-10-15T07:22:11.010Z,9.16
2022-10-15T07:24:40.027Z,9.23
2022-10-15T07:27:18.633Z,9.27
2022-10-15T07:29:41.333Z,9.34
2022-10-15T07:32:11.651Z,9.37
2022-10-15T07:34:41.316Z,9.43
2022-10-15T07:37:10.335Z,9.46
2022-10-15T07:39:41.651Z,9.53
2022-10-15T07:44:42.960Z,10.05
2022-10-15T07:47:12.533Z,10.58
2022-10-15T07:49:41.719Z,11.12
2022-10-15T07:52:12.935Z,11.64
2022-10-15T07:54:42.139Z,12.16
2022-10-15T07:57:12.389Z,12.68
2022-10-15T07:59:42.150Z,13.20
2022-10-15T08:02:17.036Z,13.62
2022-10-15T08:04:47.573Z,14.03
2022-10-15T08:07:17.122Z,14.49
2022-10-15T08:09:51.116Z,14.78
2022-10-15T08:12:22.280Z,15.01
2022-10-15T08:14:51.186Z,15.25
2022-10-15T08:17:20.367Z,15.43
2022-10-15T08:19:50.747Z,15.58
2022-10-15T08:22:19.545Z,15.61
2022-10-15T08:24:49.838Z,15.56
2022-10-15T08:27:18.793Z,15.54
2022-10-15T08:29:49.824Z,15.49
2022-10-15T08:32:19.835Z,15.36
2022-10-15T08:34:49.048Z,15.25
2022-10-15T08:37:18.200Z,15.14
2022-10-15T08:39:47.050Z,14.99
2022-10-15T08:42:22.378Z,14.87
2022-10-15T08:44:55.328Z,14.82
2022-10-15T08:47:38.408Z,14.75
2022-10-15T08:50:40.885Z,14.66
2022-10-15T08:53:16.033Z,14.50
2022-10-15T08:55:48.099Z,14.34
2022-10-15T08:58:46.818Z,14.26
2022-10-15T09:01:33.458Z,14.18
2022-10-15T09:04:39.582Z,14.09
2022-10-15T09:07:16.155Z,13.98
2022-10-15T09:09:55.145Z,13.85
2022-10-15T09:12:45.419Z,13.77
2022-10-15T09:15:18.517Z,13.70
2022-10-15T09:17:50.321Z,13.67
2022-10-15T09:20:35.956Z,13.66
2022-10-15T09:23:10.306Z,13.61
2022-10-15T09:25:40.648Z,13.56
2022-10-15T09:28:11.241Z,13.54
2022-10-15T09:30:48.352Z,13.53
2022-10-15T09:33:31.754Z,13.52
2022-10-15T09:36:25.205Z,13.48
2022-10-15T09:39:05.295Z,13.45
2022-10-15T09:41:40.704Z,13.41
2022-10-15T09:44:13.665Z,13.36
2022-10-15T09:46:49.098Z,13.35
2022-10-15T09:49:31.282Z,13.32
2022-10-15T09:52:04.124Z,13.33
2022-10-15T09:54:54.625Z,13.30
2022-10-15T09:57:23.683Z,13.29
2022-10-15T10:00:00.242Z,13.30
2022-10-15T10:02:30.331Z,13.29
2022-10-15T10:05:03.266Z,13.28
2022-10-15T10:07:37.735Z,13.25
2022-10-15T10:10:23.399Z,13.21
2022-10-15T10:12:53.474Z,13.19
2022-10-15T10:15:36.715Z,13.20
2022-10-15T10:18:10.748Z,13.21
2022-10-15T10:20:43.465Z,13.19
2022-10-15T10:23:24.535Z,13.17
2022-10-15T10:25:54.510Z,13.20
2022-10-15T10:28:31.527Z,13.26
2022-10-15T10:31:05.503Z,13.28
2022-10-15T10:33:43.475Z,13.28
2022-10-15T10:36:31.237Z,13.26
2022-10-15T10:39:31.160Z,13.25
2022-10-15T10:42:07.501Z,13.24
2022-10-15T10:44:41.735Z,13.26
2022-10-15T10:47:25.455Z,13.29
2022-10-15T10:50:00.583Z,13.28
2022-10-15T10:52:37.224Z,13.24
2022-10-15T10:55:21.099Z,13.24
2022-10-15T10:57:58.044Z,13.23
2022-10-15T11:00:45.312Z,13.21
2022-10-15T11:03:31.934Z,13.21
2022-10-15T11:06:34.652Z,13.19
2022-10-15T11:09:27.580Z,13.17
2022-10-15T11:12:32.251Z,13.17
2022-10-15T11:15:35.085Z,13.17
2022-10-15T11:18:26.425Z,13.19
2022-10-15T11:21:20.419Z,13.20
2022-10-15T11:24:15.847Z,13.22
2022-10-15T11:27:28.769Z,13.21
2022-10-15T11:30:03.349Z,13.24
2022-10-15T11:33:07.032Z,13.22
2022-10-15T11:35:54.158Z,13.21
2022-10-15T11:38:49.809Z,13.19
2022-10-15T11:41:55.249Z,13.19
2022-10-15T11:44:29.784Z,13.20
2022-10-15T11:47:13.379Z,13.21
2022-10-15T11:50:05.880Z,13.25
2022-10-15T11:53:27.114Z,13.26
2022-10-15T11:56:22.592Z,13.26
2022-10-15T11:59:05.325Z,13.24
2022-10-15T12:01:40.830Z,13.25
2022-10-15T12:04:36.307Z,13.27
2022-10-15T12:07:07.120Z,13.27
2022-10-15T12:09:39.684Z,13.27
2022-10-15T12:12:21.581Z,13.27
2022-10-15T12:15:29.779Z,13.29
2022-10-15T12:18:57.965Z,13.31
2022-10-15T12:21:58.550Z,13.30
2022-10-15T12:24:51.210Z,13.32
2022-10-15T12:27:29.300Z,13.35
2022-10-15T12:30:06.702Z,13.35
2022-10-15T12:32:43.127Z,13.34
2022-10-15T12:35:19.635Z,13.33
2022-10-15T12:37:49.830Z,13.36
2022-10-15T12:40:26.799Z,13.38
2022-10-15T12:43:01.304Z,13.39
2022-10-15T12:45:40.663Z,13.37
2022-10-15T12:48:19.918Z,13.37
2022-10-15T12:50:48.850Z,13.36
2022-10-15T12:53:34.230Z,13.35
2022-10-15T12:56:17.929Z,13.37
2022-10-15T12:58:49.109Z,13.39
2022-10-15T13:01:26.273Z,13.38
2022-10-15T13:03:58.514Z,13.39
2022-10-15T13:06:35.107Z,13.37
2022-10-15T13:09:12.394Z,13.37
2022-10-15T13:14:43.055Z,13.36
2022-10-15T13:17:18.766Z,13.33
2022-10-15T13:19:59.096Z,13.35
2022-10-15T13:22:29.722Z,13.32
2022-10-15T13:24:59.126Z,13.29
2022-10-15T13:27:39.556Z,13.29
2022-10-15T13:30:13.406Z,13.29
2022-10-15T13:32:50.756Z,13.28
2022-10-15T13:35:29.322Z,13.27
2022-10-15T13:38:00.090Z,13.27
2022-10-15T13:40:29.957Z,13.27
2022-10-15T13:43:08.529Z,13.26
2022-10-15T13:45:41.036Z,13.24
2022-10-15T13:48:18.408Z,13.21
2022-10-15T13:50:50.057Z,13.18
2022-10-15T13:53:36.734Z,13.17
2022-10-15T13:56:29.163Z,13.16
2022-10-15T13:59:00.105Z,13.16
2022-10-15T14:01:29.867Z,13.24
2022-10-15T14:04:01.324Z,13.33
2022-10-15T14:06:34.949Z,13.40
2022-10-15T14:09:22.904Z,13.40
2022-10-15T14:11:59.070Z,13.37
2022-10-15T14:14:40.533Z,13.31
2022-10-15T14:17:15.109Z,13.28
2022-10-15T14:20:22.166Z,13.23
2022-10-15T14:22:31.557Z,13.18
2022-10-15T14:25:01.042Z,13.13
2022-10-15T14:27:30.493Z,13.09
2022-10-15T14:30:01.325Z,13.03
2022-10-15T14:32:34.542Z,12.98
2022-10-15T14:35:10.056Z,12.92
2022-10-15T14:37:41.505Z,12.85
2022-10-15T14:40:15.342Z,12.81
2022-10-15T14:43:07.762Z,12.77
2022-10-15T14:45:54.279Z,12.70
2022-10-15T14:48:29.454Z,12.64
2022-10-15T14:50:59.424Z,12.59
2022-10-15T14:53:31.123Z,12.54
2022-10-15T14:56:24.125Z,12.50
2022-10-15T14:58:56.868Z,12.45
2022-10-15T15:01:27.789Z,12.37
2022-10-15T15:03:57.781Z,12.31
2022-10-15T15:06:27.542Z,12.27
2022-10-15T15:08:57.668Z,12.20
2022-10-15T15:11:26.561Z,12.17
2022-10-15T15:13:56.030Z,12.11
2022-10-15T15:16:25.006Z,12.05
2022-10-15T15:18:54.497Z,11.96
2022-10-15T15:21:24.038Z,11.88
2022-10-15T15:23:53.668Z,11.83
2022-10-15T15:26:24.892Z,11.79
2022-10-15T15:28:55.838Z,11.69
2022-10-15T15:31:28.350Z,11.63
2022-10-15T15:33:58.388Z,11.58
2022-10-15T15:36:28.914Z,11.52
2022-10-15T15:39:00.596Z,11.43
2022-10-15T15:41:30.785Z,11.37
2022-10-15T15:44:01.532Z,11.26
2022-10-15T15:46:30.844Z,11.19
2022-10-15T15:49:01.228Z,11.10
2022-10-15T15:51:32.056Z,11.04
2022-10-15T15:54:03.796Z,10.98
2022-10-15T15:56:34.869Z,10.93
2022-10-15T15:59:06.013Z,10.87
2022-10-15T16:01:34.857Z,10.81
2022-10-15T16:04:05.247Z,10.77
2022-10-15T16:06:35.404Z,10.67
2022-10-15T16:09:06.443Z,10.57
2022-10-15T16:11:40.420Z,10.51
2022-10-15T16:14:10.552Z,10.45
2022-10-15T16:16:40.124Z,10.40
2022-10-15T16:19:10.061Z,10.35
2022-10-15T16:21:39.857Z,10.31
2022-10-15T16:24:09.697Z,10.28
2022-10-15T16:26:40.127Z,10.26
2022-10-15T16:29:11.372Z,10.25
2022-10-15T16:31:42.145Z,10.24
2022-10-15T16:34:13.147Z,10.24
2022-10-15T16:36:42.973Z,10.23
2022-10-15T16:39:13.247Z,10.21
2022-10-15T16:41:42.049Z,10.23
2022-10-15T16:44:12.502Z,10.24
2022-10-15T16:46:41.539Z,10.25
2022-10-15T16:49:10.567Z,10.24
2022-10-15T16:51:43.557Z,10.25
2022-10-15T16:54:15.654Z,10.24
2022-10-15T16:56:49.119Z,10.23
2022-10-15T16:59:17.613Z,10.22
2022-10-15T17:01:48.264Z,10.21
2022-10-15T17:04:18.252Z,10.19
2022-10-15T17:06:47.072Z,10.17
2022-10-15T17:09:17.837Z,10.16
2022-10-15T17:11:48.628Z,10.17
2022-10-15T17:14:20.551Z,10.14
2022-10-15T17:16:51.497Z,10.09
2022-10-15T17:19:24.017Z,10.02
2022-10-15T17:21:55.112Z,9.96
2022-10-15T17:24:26.900Z,9.92
2022-10-15T17:26:58.217Z,9.84
2022-10-15T17:29:32.487Z,9.79
2022-10-15T17:32:00.733Z,9.75
2022-10-15T17:34:30.186Z,9.69
2022-10-15T17:37:00.131Z,9.65
2022-10-15T17:39:29.900Z,9.61
2022-10-15T17:42:00.197Z,9.57
2022-10-15T17:44:30.325Z,9.53
2022-10-15T17:47:01.165Z,9.49
2022-10-15T17:49:31.861Z,9.46
2022-10-15T17:52:02.427Z,9.42
2022-10-15T17:54:32.676Z,9.37
2022-10-15T17:57:02.117Z,9.34
2022-10-15T17:59:32.546Z,9.30
2022-10-15T18:02:01.655Z,9.29
2022-10-15T18:04:33.618Z,9.28
2022-10-15T18:07:02.739Z,9.29
2022-10-15T18:09:31.897Z,9.29
2022-10-15T18:12:04.401Z,9.26
2022-10-15T18:14:37.570Z,9.24
2022-10-15T18:17:07.616Z,9.21
2022-10-15T18:19:36.885Z,9.19
2022-10-15T18:22:07.049Z,9.15
2022-10-15T18:24:37.329Z,9.13
2022-10-15T18:27:06.923Z,9.08
2022-10-15T18:29:36.216Z,9.07
2022-10-15T18:32:05.560Z,9.06
2022-10-15T18:34:35.496Z,9.05
2022-10-15T18:37:05.326Z,9.03
2022-10-15T18:39:34.402Z,9.04
2022-10-15T18:42:04.781Z,9.03
2022-10-15T18:44:34.296Z,8.99
2022-10-15T18:47:03.883Z,8.99
2022-10-15T18:49:35.556Z,8.98
2022-10-15T18:52:15.872Z,8.99
2022-10-15T18:54:40.504Z,8.96
2022-10-15T18:57:09.583Z,8.93
2022-10-15T18:59:40.717Z,8.90
2022-10-15T19:02:10.700Z,8.88
2022-10-15T19:04:41.098Z,8.88
2022-10-15T19:07:11.449Z,8.87
2022-10-15T19:09:41.557Z,8.86
2022-10-15T19:12:12.045Z,8.83
2022-10-15T19:14:43.717Z,8.81
2022-10-15T19:17:14.744Z,8.80
2022-10-15T19:19:46.281Z,8.76
2022-10-15T19:22:15.277Z,8.74
2022-10-15T19:24:45.263Z,8.70
2022-10-15T19:27:14.968Z,8.64
2022-10-15T19:29:45.792Z,8.58
2022-10-15T19:32:14.865Z,8.53
2022-10-15T19:34:43.939Z,8.47
2022-10-15T19:37:12.836Z,8.41
2022-10-15T19:39:48.401Z,8.37
2022-10-15T19:42:18.849Z,8.32
2022-10-15T19:44:49.593Z,8.28
2022-10-15T19:47:20.767Z,8.24
2022-10-15T19:49:50.624Z,8.17
2022-10-15T19:52:20.176Z,8.12
2022-10-15T19:54:52.115Z,8.09
2022-10-15T19:57:22.234Z,8.05
2022-10-15T19:59:52.595Z,7.97
2022-10-15T20:02:21.525Z,7.90
2022-10-15T20:04:51.317Z,7.83
2022-10-15T20:07:20.354Z,7.77
2022-10-15T20:09:50.155Z,7.74
2022-10-15T20:12:20.003Z,7.73
2022-10-15T20:14:50.292Z,7.72
2022-10-15T20:17:21.021Z,7.68
2022-10-15T20:19:50.199Z,7.63
2022-10-15T20:22:21.728Z,7.59
2022-10-15T20:24:51.342Z,7.55
2022-10-15T20:27:21.744Z,7.54
2022-10-15T20:29:50.940Z,7.53
2022-10-15T20:32:34.448Z,7.52
2022-10-15T20:34:53.338Z,7.48
2022-10-15T20:37:23.155Z,7.43
2022-10-15T20:39:53.131Z,7.42
2022-10-15T20:42:23.682Z,7.40
2022-10-15T20:44:52.876Z,7.37
2022-10-15T20:47:22.597Z,7.34
2022-10-15T20:49:52.741Z,7.32
2022-10-15T20:52:23.304Z,7.29
2022-10-15T20:54:54.394Z,7.25
2022-10-15T20:57:23.329Z,7.20
2022-10-15T20:59:54.959Z,7.19
2022-10-15T21:02:24.658Z,7.16
2022-10-15T21:04:54.530Z,7.12
2022-10-15T21:07:24.613Z,7.10
2022-10-15T21:09:54.503Z,7.07
2022-10-15T21:12:25.374Z,7.05
2022-10-15T21:14:56.442Z,7.02
2022-10-15T21:17:27.754Z,6.96
2022-10-15T21:19:58.574Z,6.91
2022-10-15T21:22:28.071Z,6.87
2022-10-15T21:24:58.618Z,6.78
2022-10-15T21:27:28.050Z,6.73
2022-10-15T21:29:58.393Z,6.70
2022-10-15T21:32:28.340Z,6.61
2022-10-15T21:34:59.534Z,6.60
2022-10-15T21:37:28.789Z,6.59
2022-10-15T21:39:58.312Z,6.58
2022-10-15T21:42:29.586Z,6.60
2022-10-15T21:45:00.667Z,6.59
2022-10-15T21:47:31.482Z,6.56
2022-10-15T21:50:00.992Z,6.52
2022-10-15T21:52:31.469Z,6.46
2022-10-15T21:55:01.342Z,6.42
2022-10-15T21:57:34.582Z,6.41
2022-10-15T22:00:06.915Z,6.41
2022-10-15T22:02:39.394Z,6.42
2022-10-15T22:05:09.371Z,6.39
2022-10-15T22:07:40.403Z,6.36
2022-10-15T22:10:09.898Z,6.32
2022-10-15T22:12:40.393Z,6.32
2022-10-15T22:15:10.440Z,6.29
2022-10-15T22:17:39.706Z,6.29
2022-10-15T22:20:10.214Z,6.25
2022-10-15T22:22:39.118Z,6.20
2022-10-15T22:25:08.846Z,6.16
2022-10-15T22:27:38.505Z,6.07
2022-10-15T22:30:08.843Z,5.99
2022-10-15T22:32:38.476Z,6.02
2022-10-15T22:35:10.811Z,6.06
2022-10-15T22:37:41.517Z,6.03
2022-10-15T22:40:12.163Z,5.98
2022-10-15T22:42:41.542Z,5.92
2022-10-15T22:45:12.852Z,5.89
2022-10-15T22:47:42.821Z,5.87
2022-10-15T22:50:12.518Z,5.88
2022-10-15T22:52:43.519Z,5.86
2022-10-15T22:55:13.041Z,5.81
2022-10-15T22:57:42.188Z,5.78
2022-10-15T23:00:13.121Z,5.79
2022-10-15T23:02:43.543Z,5.79
2022-10-15T23:05:12.500Z,5.78
2022-10-15T23:07:45.751Z,5.73
2022-10-15T23:10:15.645Z,5.64
2022-10-15T23:12:45.862Z,5.58
2022-10-15T23:15:16.117Z,5.53
2022-10-15T23:17:45.882Z,5.48
2022-10-15T23:20:16.545Z,5.46
2022-10-15T23:22:49.202Z,5.43
2022-10-15T23:25:20.971Z,5.45
2022-10-15T23:27:50.494Z,5.44
2022-10-15T23:30:24.981Z,5.41
2022-10-15T23:32:52.248Z,5.44
2022-10-15T23:35:22.111Z,5.46
2022-10-15T23:37:51.719Z,5.46
2022-10-15T23:40:20.548Z,5.47
2022-10-15T23:42:51.312Z,5.47
2022-10-15T23:45:21.257Z,5.47
2022-10-15T23:47:50.631Z,5.44
2022-10-15T23:50:20.928Z,5.40
2022-10-15T23:52:51.623Z,5.39
2022-10-15T23:55:22.081Z,5.40
2022-10-15T23:57:51.287Z,5.37
